Time;durP1;ratioP1;P1;durP2;ratioP2;P2;SDS_P1;SDS_P2;PMS_P1;PMS_P2;Temp;Humidity;BMP_temperature;BMP_pressure;BME280_temperature;BME280_humidity;BME280_pressure;Samples;Min_cycle;Max_cycle;Signal;HPM_P1;HPM_P2
2022/03/19 05:01:21;;;;;;;13.88;8.30;;;1.80;99.90;;;;;;5501916;23;20245;-70
2022/03/19 05:03:47;;;;;;;25.77;9.27;;;1.80;99.90;;;;;;4934324;29;20273;-70
2022/03/19 05:06:14;;;;;;;12.60;7.85;;;1.80;99.90;;;;;;4934162;29;20213;-70
2022/03/19 05:08:41;;;;;;;8.38;5.68;;;1.70;99.90;;;;;;4936004;29;20214;-70
2022/03/19 05:11:13;;;;;;;13.18;6.63;;;1.70;99.90;;;;;;4926620;29;20230;-69
2022/03/19 05:13:40;;;;;;;15.07;7.10;;;1.70;99.90;;;;;;4915409;29;20293;-70
2022/03/19 05:16:07;;;;;;;11.43;7.40;;;1.70;99.90;;;;;;4914933;29;20214;-70
2022/03/19 05:18:35;;;;;;;10.77;7.47;;;1.70;99.90;;;;;;4915337;29;20214;-69
2022/03/19 05:21:02;;;;;;;10.48;6.85;;;1.60;99.90;;;;;;4915150;29;20299;-70
2022/03/19 05:23:29;;;;;;;11.10;7.20;;;1.60;99.90;;;;;;4916510;29;20247;-70
2022/03/19 05:25:55;;;;;;;12.70;7.07;;;1.60;99.90;;;;;;4915471;29;20584;-70
2022/03/19 05:28:22;;;;;;;11.20;6.68;;;1.60;99.90;;;;;;4915394;29;20210;-70
2022/03/19 05:30:49;;;;;;;13.30;6.55;;;1.60;99.90;;;;;;4913440;29;20234;-70
2022/03/19 05:33:16;;;;;;;10.80;7.85;;;1.60;99.90;;;;;;4914835;29;20270;-70
2022/03/19 05:35:45;;;;;;;16.67;7.22;;;1.60;99.90;;;;;;4914708;29;20210;-69
2022/03/19 05:38:12;;;;;;;10.55;6.70;;;1.60;99.90;;;;;;4915060;29;20301;-69
2022/03/19 05:40:39;;;;;;;8.85;6.60;;;1.60;99.90;;;;;;4914088;29;20325;-69
2022/03/19 05:43:06;;;;;;;14.18;6.93;;;1.60;99.90;;;;;;4914974;29;20632;-70
2022/03/19 05:45:34;;;;;;;14.77;7.20;;;1.60;99.90;;;;;;4914313;29;20598;-69
2022/03/19 05:48:01;;;;;;;10.07;7.68;;;1.60;99.90;;;;;;4912671;29;20262;-70
2022/03/19 05:50:28;;;;;;;13.45;8.00;;;1.60;99.90;;;;;;4929655;29;20202;-69
2022/03/19 05:52:56;;;;;;;13.20;7.28;;;1.60;99.90;;;;;;4933570;29;20285;-69
2022/03/19 05:55:22;;;;;;;8.93;7.22;;;1.60;99.90;;;;;;4933569;29;20241;-70
2022/03/19 05:57:49;;;;;;;9.60;6.80;;;1.60;99.90;;;;;;4933209;29;20210;-69
2022/03/19 06:00:16;;;;;;;12.57;7.97;;;1.60;99.90;;;;;;4932264;29;20636;-69
2022/03/19 06:02:43;;;;;;;16.48;8.27;;;1.60;99.90;;;;;;4933451;29;20214;-69
2022/03/19 06:05:11;;;;;;;10.25;7.53;;;1.60;99.90;;;;;;4933526;29;20214;-69
2022/03/19 06:07:38;;;;;;;16.85;9.15;;;1.60;99.90;;;;;;4933488;29;20281;-70
2022/03/19 06:10:08;;;;;;;16.42;7.45;;;1.70;99.90;;;;;;4932515;29;20220;-70
2022/03/19 06:12:35;;;;;;;12.63;8.13;;;1.70;99.90;;;;;;4933071;28;20665;-71
2022/03/19 06:15:02;;;;;;;10.05;8.15;;;1.80;99.90;;;;;;4932778;29;20217;-70
2022/03/19 06:17:29;;;;;;;18.80;8.90;;;1.90;99.90;;;;;;4933506;29;20631;-70
2022/03/19 06:19:55;;;;;;;11.55;8.27;;;1.90;99.90;;;;;;4933176;29;20269;-71
2022/03/19 06:22:22;;;;;;;12.52;6.78;;;2.00;99.90;;;;;;4932636;29;20234;-70
2022/03/19 06:24:49;;;;;;;9.75;6.80;;;2.00;99.90;;;;;;4933350;29;20221;-69
2022/03/19 06:27:17;;;;;;;13.23;7.03;;;2.10;99.90;;;;;;4932959;29;20300;-70
2022/03/19 06:29:44;;;;;;;11.10;7.68;;;2.20;99.90;;;;;;4932640;29;20213;-69
2022/03/19 06:32:10;;;;;;;11.60;6.93;;;2.30;99.90;;;;;;4936536;29;20514;-69
2022/03/19 06:34:37;;;;;;;8.70;6.85;;;2.40;99.90;;;;;;4937198;29;20679;-69
2022/03/19 06:37:22;;;;;;;9.65;6.30;;;2.50;99.90;;;;;;4934819;29;20683;-69
2022/03/19 06:39:50;;;;;;;9.88;6.47;;;2.60;99.90;;;;;;4917320;29;20600;-68
2022/03/19 06:42:18;;;;;;;10.93;7.30;;;2.70;99.90;;;;;;4917501;29;20235;-69
2022/03/19 06:44:45;;;;;;;5.40;5.00;;;2.80;99.90;;;;;;4917148;29;20704;-68
2022/03/19 06:47:11;;;;;;;8.43;5.28;;;2.80;99.90;;;;;;4917724;29;20312;-70
2022/03/19 06:49:38;;;;;;;8.88;5.90;;;2.90;99.90;;;;;;4917341;29;20210;-70
2022/03/19 06:52:06;;;;;;;5.82;4.38;;;3.00;99.90;;;;;;4916950;29;20281;-70
2022/03/19 06:54:33;;;;;;;12.02;5.25;;;3.10;99.90;;;;;;4917998;29;20230;-70
2022/03/19 06:56:59;;;;;;;7.00;5.50;;;3.20;99.90;;;;;;4917255;29;20211;-70
2022/03/19 06:59:27;;;;;;;8.88;5.22;;;3.30;99.90;;;;;;4917710;29;20269;-69
2022/03/19 07:01:55;;;;;;;6.22;5.25;;;3.30;99.90;;;;;;4916326;29;20256;-69
2022/03/19 07:04:21;;;;;;;9.77;6.35;;;3.40;99.90;;;;;;4917467;29;20214;-69
2022/03/19 07:06:48;;;;;;;13.40;5.97;;;3.50;99.90;;;;;;4916572;29;20674;-70
2022/03/19 07:09:15;;;;;;;8.15;6.15;;;3.50;99.90;;;;;;4917529;29;20226;-70
2022/03/19 07:11:42;;;;;;;10.00;5.93;;;3.50;99.90;;;;;;4916769;29;20286;-69
2022/03/19 07:14:09;;;;;;;13.02;6.60;;;3.60;99.90;;;;;;4917554;29;20314;-70
2022/03/19 07:16:38;;;;;;;10.02;5.88;;;3.70;99.90;;;;;;4916843;29;20625;-70
2022/03/19 07:19:05;;;;;;;11.32;6.20;;;3.70;99.90;;;;;;4917080;29;20297;-70
2022/03/19 07:21:32;;;;;;;8.38;4.82;;;3.80;99.90;;;;;;4915925;29;20325;-70
2022/03/19 07:23:58;;;;;;;11.48;4.45;;;4.00;99.90;;;;;;4917145;29;20266;-69
2022/03/19 07:26:26;;;;;;;3.33;3.10;;;4.10;99.90;;;;;;4916081;29;20215;-70
2022/03/19 07:28:53;;;;;;;3.22;3.00;;;4.20;99.90;;;;;;4923878;29;20210;-70
2022/03/19 07:31:20;;;;;;;4.85;3.50;;;4.30;99.90;;;;;;4934588;29;20636;-71
2022/03/19 07:33:50;;;;;;;7.93;4.55;;;4.40;99.90;;;;;;4935657;29;20214;-70
2022/03/19 07:36:18;;;;;;;10.25;4.47;;;4.50;99.90;;;;;;4935935;29;20217;-71
2022/03/19 07:38:45;;;;;;;4.03;3.83;;;4.50;99.90;;;;;;4935670;29;20213;-71
2022/03/19 07:43:56;;;;;;;4.82;4.43;;;4.70;99.90;;;;;;4934883;29;20212;-70
2022/03/19 07:46:24;;;;;;;5.88;3.95;;;4.80;99.90;;;;;;4935153;29;20213;-70
2022/03/19 07:48:53;;;;;;;4.45;3.55;;;4.80;99.90;;;;;;4936030;29;20592;-70
2022/03/19 07:51:19;;;;;;;6.18;3.70;;;4.90;99.90;;;;;;4934601;29;20226;-70
2022/03/19 07:53:46;;;;;;;4.78;3.30;;;4.90;99.90;;;;;;4935518;29;20236;-70
2022/03/19 07:56:13;;;;;;;7.63;4.03;;;5.00;99.90;;;;;;4935279;29;20229;-70
2022/03/19 07:58:40;;;;;;;5.68;3.30;;;5.10;99.90;;;;;;4930482;29;20214;-70
2022/03/19 08:01:07;;;;;;;3.50;3.20;;;5.10;99.90;;;;;;4910674;29;20237;-69
2022/03/19 08:03:33;;;;;;;8.68;4.05;;;5.20;99.90;;;;;;4916425;29;20274;-68
2022/03/19 08:06:01;;;;;;;8.48;3.72;;;5.30;99.90;;;;;;4915785;29;20217;-70
2022/03/19 08:08:28;;;;;;;4.88;3.78;;;5.30;99.90;;;;;;4916368;29;20218;-70
2022/03/19 08:10:55;;;;;;;4.70;2.97;;;5.40;99.90;;;;;;4915626;29;20238;-70
2022/03/19 08:13:22;;;;;;;3.92;3.63;;;5.40;99.90;;;;;;4916280;29;20659;-70
2022/03/19 08:15:49;;;;;;;6.45;3.40;;;5.50;99.90;;;;;;4916284;29;20237;-70
2022/03/19 08:18:16;;;;;;;5.50;3.00;;;5.60;99.90;;;;;;4916635;29;20211;-70
2022/03/19 08:20:44;;;;;;;4.93;3.15;;;5.60;99.90;;;;;;4915445;29;20230;-70
2022/03/19 08:23:15;;;;;;;2.70;2.60;;;5.70;99.90;;;;;;4916263;29;20226;-70
2022/03/19 08:25:42;;;;;;;4.43;2.33;;;5.80;99.90;;;;;;4916108;29;20206;-69
2022/03/19 08:28:09;;;;;;;3.13;2.85;;;5.80;99.90;;;;;;4917208;29;20211;-71
2022/03/19 08:30:36;;;;;;;4.88;3.15;;;5.90;99.90;;;;;;4918733;29;20242;-68
2022/03/19 08:33:03;;;;;;;6.13;2.28;;;6.00;99.90;;;;;;4920507;29;20234;-70
2022/03/19 08:35:30;;;;;;;4.63;3.45;;;6.10;99.90;;;;;;4917891;29;20624;-69
2022/03/19 08:40:38;;;;;;;2.75;2.60;;;6.20;99.90;;;;;;4914706;29;20253;-69
2022/03/19 08:43:05;;;;;;;3.80;2.72;;;6.30;99.90;;;;;;4915838;29;20330;-70
2022/03/19 08:45:32;;;;;;;11.90;3.72;;;6.40;99.90;;;;;;4915055;29;20690;-68
2022/03/19 08:47:59;;;;;;;5.63;3.30;;;6.50;99.90;;;;;;4915785;29;20571;-68
2022/03/19 08:50:27;;;;;;;2.80;2.60;;;6.60;99.90;;;;;;4931026;29;20210;-70
2022/03/19 08:52:54;;;;;;;2.53;2.42;;;6.60;99.90;;;;;;4934280;29;20288;-69
2022/03/19 08:55:20;;;;;;;5.60;5.10;;;6.70;99.90;;;;;;4934362;29;20326;-69
2022/03/19 08:57:49;;;;;;;3.55;2.63;;;6.80;99.90;;;;;;4934406;29;20206;-69
2022/03/19 09:00:16;;;;;;;3.80;3.10;;;6.90;99.90;;;;;;4933284;29;20215;-69
2022/03/19 09:02:43;;;;;;;3.50;2.15;;;7.00;99.90;;;;;;4934412;29;20234;-70
2022/03/19 09:05:10;;;;;;;7.57;2.35;;;7.10;99.90;;;;;;4934113;29;20213;-69
2022/03/19 09:07:37;;;;;;;2.42;2.13;;;7.20;99.90;;;;;;4933794;29;20206;-69
2022/03/19 09:10:05;;;;;;;6.65;2.45;;;7.20;99.90;;;;;;4934111;29;20221;-69
2022/03/19 09:12:31;;;;;;;5.85;3.40;;;7.40;99.90;;;;;;4934067;29;20688;-69
2022/03/19 09:14:59;;;;;;;3.00;2.30;;;7.50;99.90;;;;;;4933742;29;20220;-69
2022/03/19 09:17:26;;;;;;;2.00;1.90;;;7.50;99.90;;;;;;4934082;29;20265;-70
2022/03/19 09:19:53;;;;;;;3.95;2.10;;;7.60;99.90;;;;;;4933250;29;20694;-70
2022/03/19 09:22:19;;;;;;;4.00;2.90;;;7.60;99.90;;;;;;4933281;29;20225;-69
2022/03/19 09:24:46;;;;;;;4.97;2.20;;;7.70;99.90;;;;;;4933862;29;20349;-69
2022/03/19 09:27:13;;;;;;;2.88;2.67;;;7.80;99.90;;;;;;4919643;29;20665;-70
2022/03/19 09:29:39;;;;;;;5.88;2.00;;;7.90;99.90;;;;;;4906596;29;20281;-69
2022/03/19 09:32:09;;;;;;;2.80;2.17;;;8.00;99.90;;;;;;4914579;29;20227;-70
2022/03/19 09:34:36;;;;;;;2.75;2.55;;;8.00;99.90;;;;;;4914785;29;20267;-70
2022/03/19 09:37:03;;;;;;;3.88;2.40;;;8.10;99.90;;;;;;4914357;29;20586;-70
2022/03/19 09:39:30;;;;;;;7.47;2.63;;;8.20;99.90;;;;;;4915312;29;20210;-69
2022/03/19 09:41:56;;;;;;;2.50;1.95;;;8.30;99.90;;;;;;4914796;29;20256;-70
2022/03/19 09:44:25;;;;;;;5.80;2.80;;;8.30;99.90;;;;;;4914711;29;20334;-70
2022/03/19 09:46:52;;;;;;;3.45;2.10;;;8.40;99.90;;;;;;4914255;29;20218;-69
2022/03/19 09:49:20;;;;;;;3.45;2.50;;;8.50;99.90;;;;;;4914553;29;20610;-70
2022/03/19 09:51:51;;;;;;;5.00;2.25;;;8.60;99.90;;;;;;4913687;29;20633;-69
2022/03/19 09:54:19;;;;;;;2.78;2.05;;;8.70;99.90;;;;;;4915062;29;20250;-70
2022/03/19 09:56:46;;;;;;;4.32;2.55;;;8.80;99.90;;;;;;4914613;29;20233;-70
2022/03/19 09:59:13;;;;;;;2.35;2.25;;;8.80;99.90;;;;;;4914964;29;20560;-70
2022/03/19 10:01:40;;;;;;;2.45;2.25;;;8.90;99.90;;;;;;4913489;29;20285;-69
2022/03/19 10:04:08;;;;;;;5.63;2.10;;;9.00;99.90;;;;;;4914753;29;20683;-70
2022/03/19 10:09:33;;;;;;;4.72;2.05;;;9.20;99.90;;;;;;4914071;29;20213;-69
2022/03/19 10:12:02;;;;;;;2.78;2.58;;;9.30;99.90;;;;;;4914215;29;20321;-71
2022/03/19 10:14:28;;;;;;;2.88;1.85;;;9.40;99.90;;;;;;4914659;29;20760;-71
2022/03/19 10:16:57;;;;;;;2.88;2.33;;;9.40;99.90;;;;;;4914616;29;20667;-70
2022/03/19 10:19:24;;;;;;;1.58;1.48;;;9.50;99.90;;;;;;4933330;29;20546;-69
2022/03/19 10:21:54;;;;;;;2.13;2.03;;;9.60;99.90;;;;;;4932146;29;20234;-69
2022/03/19 10:24:25;;;;;;;2.53;1.40;;;9.60;99.90;;;;;;4933960;29;20210;-68
2022/03/19 10:26:53;;;;;;;4.68;2.25;;;9.70;99.90;;;;;;4933737;29;20256;-70
2022/03/19 10:29:28;;;;;;;2.10;1.27;;;9.70;99.90;;;;;;4934345;29;20210;-70
2022/03/19 10:32:01;;;;;;;1.10;1.10;;;9.80;99.90;;;;;;4932692;29;20264;-70
2022/03/19 10:34:29;;;;;;;0.98;0.98;;;9.90;99.90;;;;;;4933701;29;20645;-70
2022/03/19 10:36:58;;;;;;;1.38;1.23;;;9.80;99.90;;;;;;4932958;29;20206;-70
2022/03/19 10:39:27;;;;;;;1.00;1.00;;;9.90;99.90;;;;;;4933208;29;20214;-69
2022/03/19 10:41:56;;;;;;;3.40;1.20;;;9.90;99.90;;;;;;4932043;29;20607;-70
2022/03/19 10:44:25;;;;;;;1.48;1.38;;;9.90;99.90;;;;;;4932928;29;20296;-69
2022/03/19 10:46:54;;;;;;;1.83;1.25;;;10.00;99.90;;;;;;4932690;29;20337;-70
2022/03/19 10:49:23;;;;;;;0.82;0.82;;;10.10;99.90;;;;;;4931782;29;20268;-69
2022/03/19 10:51:51;;;;;;;3.72;1.63;;;10.10;99.90;;;;;;4931642;29;20273;-70
2022/03/19 10:54:19;;;;;;;3.90;1.00;;;10.10;99.90;;;;;;4933056;29;20694;-70
2022/03/19 10:56:48;;;;;;;0.75;0.75;;;10.30;99.90;;;;;;4932985;29;20310;-70
2022/03/19 10:59:15;;;;;;;1.90;1.80;;;10.40;99.90;;;;;;4933145;29;20217;-70
2022/03/19 11:01:43;;;;;;;1.25;0.77;;;10.40;99.90;;;;;;4931421;29;20616;-70
2022/03/19 11:04:12;;;;;;;0.95;0.85;;;10.50;99.90;;;;;;4932906;29;20206;-69
2022/03/19 11:06:40;;;;;;;0.93;0.82;;;10.50;99.90;;;;;;4932630;29;20300;-70
2022/03/19 11:09:10;;;;;;;0.88;0.85;;;10.50;99.90;;;;;;4933310;29;20214;-70
2022/03/19 11:11:46;;;;;;;2.58;0.95;;;10.50;99.90;;;;;;4932408;29;20225;-70
2022/03/19 11:14:19;;;;;;;1.15;0.85;;;10.50;99.90;;;;;;4933064;29;20622;-70
2022/03/19 11:17:23;;;;;;;1.00;0.90;;;10.60;99.90;;;;;;4933051;29;20662;-70
2022/03/19 11:19:38;;;;;;;0.80;0.80;;;10.50;99.90;;;;;;4935586;29;20214;-70
2022/03/19 11:22:05;;;;;;;1.38;1.27;;;10.40;99.90;;;;;;4935568;29;20234;-70
2022/03/19 11:24:37;;;;;;;1.20;1.10;;;10.40;99.90;;;;;;4936000;29;20680;-70
2022/03/19 11:27:05;;;;;;;1.02;0.77;;;10.40;99.90;;;;;;4923973;29;20226;-70
2022/03/19 11:29:33;;;;;;;1.38;1.33;;;10.30;99.90;;;;;;4918200;29;20604;-69
2022/03/19 11:32:02;;;;;;;1.38;1.00;;;10.10;99.90;;;;;;4935334;29;20587;-69
2022/03/19 11:34:44;;;;;;;3.45;1.27;;;10.10;99.90;;;;;;4936098;29;20300;-69
2022/03/19 11:37:11;;;;;;;1.70;1.58;;;10.20;99.90;;;;;;4935459;29;20288;-69
2022/03/19 11:39:38;;;;;;;3.90;1.40;;;10.40;99.90;;;;;;4935183;29;20237;-69
2022/03/19 11:42:09;;;;;;;1.50;1.40;;;10.50;99.90;;;;;;4935812;29;20233;-70
2022/03/19 11:44:49;;;;;;;2.45;1.45;;;10.50;99.90;;;;;;4935973;29;20216;-69
2022/03/19 11:47:19;;;;;;;3.78;1.95;;;10.50;99.90;;;;;;4935729;29;20241;-70
2022/03/19 11:49:52;;;;;;;1.17;1.17;;;10.50;99.90;;;;;;4934998;29;20214;-69
2022/03/19 11:52:39;;;;;;;1.77;1.25;;;10.60;99.90;;;;;;4935399;29;20230;-70
2022/03/19 11:55:09;;;;;;;1.58;0.82;;;10.70;99.90;;;;;;4935713;29;20209;-70
2022/03/19 11:57:55;;;;;;;1.80;1.48;;;10.90;99.90;;;;;;4935640;29;20214;-69
2022/03/19 12:00:23;;;;;;;3.08;0.88;;;10.90;99.90;;;;;;4934411;29;20221;-69
2022/03/19 12:03:03;;;;;;;1.77;0.98;;;10.80;99.90;;;;;;4935316;29;20237;-69
2022/03/19 12:05:30;;;;;;;1.70;0.90;;;10.80;99.90;;;;;;4935256;29;20316;-69
2022/03/19 12:08:04;;;;;;;1.85;1.20;;;10.90;99.90;;;;;;4936125;29;20216;-68
2022/03/19 12:10:38;;;;;;;1.52;1.25;;;10.90;99.90;;;;;;4934622;29;20296;-69
2022/03/19 12:13:35;;;;;;;1.77;1.05;;;10.80;99.90;;;;;;4935326;29;20217;-69
2022/03/19 12:16:04;;;;;;;1.92;1.35;;;10.80;99.90;;;;;;4929280;29;20208;-71
2022/03/19 12:18:33;;;;;;;2.47;1.10;;;10.70;99.90;;;;;;4922687;29;20300;-69
2022/03/19 12:21:01;;;;;;;0.80;0.80;;;10.80;99.90;;;;;;4915145;29;20322;-69
2022/03/19 12:23:28;;;;;;;0.90;0.90;;;10.90;99.90;;;;;;4915990;29;20750;-70
2022/03/19 12:26:01;;;;;;;1.00;1.00;;;10.90;99.90;;;;;;4915807;29;20229;-69
2022/03/19 12:28:29;;;;;;;1.10;1.10;;;11.00;99.90;;;;;;4915688;29;20620;-69
2022/03/19 12:31:03;;;;;;;1.73;1.73;;;11.00;99.90;;;;;;4915956;29;20231;-69
2022/03/19 12:33:31;;;;;;;0.82;0.82;;;10.90;99.90;;;;;;4917479;29;20266;-68
2022/03/19 12:35:58;;;;;;;1.50;1.35;;;10.90;99.90;;;;;;4915583;29;20369;-69
2022/03/19 12:38:32;;;;;;;1.17;1.17;;;10.90;99.90;;;;;;4915893;29;20357;-69
2022/03/19 12:43:46;;;;;;;1.15;1.15;;;11.00;99.90;;;;;;4915522;29;20576;-70
2022/03/19 12:46:21;;;;;;;1.23;1.13;;;11.10;99.90;;;;;;4915115;29;20230;-69
2022/03/19 12:48:49;;;;;;;1.38;1.30;;;11.10;99.90;;;;;;4919347;29;20233;-69
2022/03/19 12:51:23;;;;;;;0.80;0.75;;;11.10;99.90;;;;;;4925298;29;20229;-70
2022/03/19 12:53:50;;;;;;;1.42;1.42;;;11.00;99.90;;;;;;4915664;29;20652;-68
2022/03/19 12:56:19;;;;;;;0.85;0.85;;;10.90;99.90;;;;;;4915148;29;20305;-70
2022/03/19 12:58:49;;;;;;;1.13;1.13;;;10.80;99.90;;;;;;4915058;29;20215;-68
2022/03/19 13:01:18;;;;;;;3.67;1.45;;;10.70;99.90;;;;;;4914303;29;20246;-69
2022/03/19 13:03:45;;;;;;;2.95;1.50;;;10.70;99.90;;;;;;4915442;29;20266;-69
2022/03/19 13:06:14;;;;;;;1.42;1.33;;;10.80;99.90;;;;;;4914823;29;20654;-68
2022/03/19 13:08:45;;;;;;;1.13;1.13;;;10.90;99.90;;;;;;4915316;29;20218;-69
2022/03/19 13:11:13;;;;;;;1.67;1.17;;;10.90;99.90;;;;;;4914332;29;20239;-69
2022/03/19 13:13:40;;;;;;;2.45;1.27;;;11.00;99.90;;;;;;4915288;29;20268;-69
2022/03/19 13:16:09;;;;;;;1.05;1.05;;;11.20;99.90;;;;;;4914768;29;20309;-69
2022/03/19 13:18:37;;;;;;;1.40;1.30;;;11.30;99.90;;;;;;4915180;29;20210;-70
2022/03/19 13:21:07;;;;;;;0.73;0.73;;;11.50;99.90;;;;;;4914111;29;20639;-70
2022/03/19 13:23:35;;;;;;;1.30;1.30;;;11.60;99.90;;;;;;4915299;29;20241;-70
2022/03/19 13:26:03;;;;;;;1.27;1.17;;;11.70;99.90;;;;;;4914738;29;20210;-69
2022/03/19 13:28:30;;;;;;;1.40;1.40;;;11.60;99.90;;;;;;4907883;29;20217;-71
2022/03/19 13:30:58;;;;;;;1.23;1.23;;;11.30;99.90;;;;;;4913764;29;20740;-71
2022/03/19 13:33:29;;;;;;;1.00;1.00;;;11.20;99.90;;;;;;4915111;29;20300;-71
2022/03/19 13:35:56;;;;;;;1.70;1.60;;;11.10;99.90;;;;;;4914639;29;20582;-71
2022/03/19 13:38:24;;;;;;;1.20;1.10;;;11.20;99.90;;;;;;4914891;29;20608;-71
2022/03/19 13:40:53;;;;;;;1.55;1.55;;;11.30;99.90;;;;;;4913257;29;20605;-71
2022/03/19 13:43:20;;;;;;;1.80;1.70;;;11.30;99.90;;;;;;4914941;29;20234;-71
2022/03/19 13:45:47;;;;;;;1.50;1.50;;;11.30;99.90;;;;;;4914309;29;20217;-71
2022/03/19 13:48:14;;;;;;;1.13;1.13;;;11.30;99.90;;;;;;4914959;29;20640;-71
2022/03/19 13:50:58;;;;;;;1.75;1.65;;;11.40;99.90;;;;;;4913366;29;20230;-70
2022/03/19 13:53:42;;;;;;;1.02;1.02;;;11.50;99.90;;;;;;4914822;29;20646;-69
2022/03/19 13:56:09;;;;;;;1.52;1.52;;;11.50;99.90;;;;;;4914446;29;20297;-69
2022/03/19 13:58:36;;;;;;;1.75;1.73;;;11.50;99.90;;;;;;4914639;29;20246;-69
2022/03/19 14:01:12;;;;;;;1.45;1.45;;;11.50;99.90;;;;;;4913420;29;20337;-69
2022/03/19 14:03:40;;;;;;;2.25;2.15;;;11.40;99.90;;;;;;4914370;29;20236;-70
2022/03/19 14:06:09;;;;;;;1.95;1.80;;;11.30;99.90;;;;;;4913885;29;20214;-69
2022/03/19 14:08:39;;;;;;;1.10;1.10;;;11.30;99.90;;;;;;4914515;29;20220;-70
2022/03/19 14:11:13;;;;;;;1.95;1.33;;;11.30;99.90;;;;;;4913457;29;20277;-69
2022/03/19 14:13:43;;;;;;;1.55;1.55;;;11.10;99.90;;;;;;4914024;29;20242;-69
2022/03/19 14:16:12;;;;;;;1.30;1.30;;;11.00;99.90;;;;;;4912544;29;20218;-68
2022/03/19 14:18:40;;;;;;;1.95;1.42;;;10.90;99.90;;;;;;4929839;29;20217;-68
2022/03/19 14:21:10;;;;;;;1.35;1.35;;;10.90;99.90;;;;;;4913290;29;20596;-69
2022/03/19 14:23:38;;;;;;;2.08;1.50;;;10.90;99.90;;;;;;4914278;29;20290;-69
2022/03/19 14:26:06;;;;;;;1.13;1.13;;;10.90;99.90;;;;;;4914128;29;20261;-69
2022/03/19 14:28:33;;;;;;;1.52;1.52;;;11.00;99.90;;;;;;4914306;29;20305;-68
2022/03/19 14:31:00;;;;;;;1.55;1.55;;;11.10;99.90;;;;;;4913083;29;20302;-69
2022/03/19 14:33:28;;;;;;;1.60;1.50;;;11.10;99.90;;;;;;4914239;29;20214;-69
2022/03/19 14:35:56;;;;;;;1.67;1.60;;;11.10;99.90;;;;;;4913205;29;20217;-69
2022/03/19 14:38:26;;;;;;;1.90;1.80;;;11.20;99.90;;;;;;4913920;29;20779;-69
2022/03/19 14:40:54;;;;;;;1.73;1.63;;;11.30;99.90;;;;;;4913277;29;20227;-69
2022/03/19 14:43:22;;;;;;;1.50;1.50;;;11.30;99.90;;;;;;4913903;29;20237;-68
2022/03/19 14:45:50;;;;;;;2.42;2.33;;;11.30;99.90;;;;;;4913493;29;20220;-69
2022/03/19 14:48:18;;;;;;;2.83;2.70;;;11.40;99.90;;;;;;4913909;29;20214;-69
2022/03/19 14:50:46;;;;;;;2.30;2.20;;;11.30;99.90;;;;;;4931744;29;20238;-70
2022/03/19 14:53:13;;;;;;;2.42;2.33;;;11.20;99.90;;;;;;4935955;29;20206;-68
2022/03/19 14:55:41;;;;;;;2.92;2.70;;;11.20;99.90;;;;;;4936284;29;20715;-70
2022/03/19 14:58:08;;;;;;;1.85;1.75;;;11.20;99.90;;;;;;4936677;29;20234;-69
2022/03/19 15:00:36;;;;;;;2.90;2.08;;;11.20;99.90;;;;;;4935217;29;20360;-69
2022/03/19 15:03:03;;;;;;;1.98;1.85;;;11.00;99.90;;;;;;4936408;29;20213;-69
2022/03/19 15:05:29;;;;;;;1.83;1.60;;;10.90;99.90;;;;;;4936059;29;20588;-69
2022/03/19 15:07:56;;;;;;;1.92;1.67;;;10.80;99.90;;;;;;4936402;29;20221;-70
2022/03/19 15:10:24;;;;;;;1.70;1.70;;;10.70;99.90;;;;;;4935689;29;20584;-70
2022/03/19 15:12:53;;;;;;;1.45;1.45;;;10.70;99.90;;;;;;4937020;29;20218;-70
2022/03/19 15:15:21;;;;;;;2.20;2.10;;;10.70;99.90;;;;;;4936063;29;20206;-70
2022/03/19 15:17:47;;;;;;;3.03;1.77;;;10.80;99.90;;;;;;4936537;29;20244;-70
2022/03/19 15:20:15;;;;;;;1.80;1.70;;;10.80;99.90;;;;;;4935598;29;20244;-70
2022/03/19 15:22:43;;;;;;;2.08;1.88;;;10.80;99.90;;;;;;4936693;29;20269;-70
2022/03/19 15:25:12;;;;;;;1.70;1.60;;;10.80;99.90;;;;;;4936491;29;20230;-69
2022/03/19 15:27:41;;;;;;;1.90;1.90;;;10.90;99.90;;;;;;4936845;29;20261;-70
2022/03/19 15:30:11;;;;;;;1.65;1.60;;;10.90;99.90;;;;;;4935309;29;20663;-70
2022/03/19 15:32:38;;;;;;;2.05;1.80;;;10.90;99.90;;;;;;4936187;29;20217;-69
2022/03/19 15:35:08;;;;;;;1.67;1.63;;;10.90;99.90;;;;;;4935946;29;20210;-69
2022/03/19 15:37:35;;;;;;;1.08;1.08;;;10.80;99.90;;;;;;4933044;29;20305;-70
2022/03/19 15:40:02;;;;;;;1.45;1.40;;;10.80;99.90;;;;;;4917647;29;20258;-69
2022/03/19 15:42:29;;;;;;;1.80;1.70;;;10.70;99.90;;;;;;4917979;29;20234;-69
2022/03/19 15:44:56;;;;;;;1.60;1.60;;;10.70;99.90;;;;;;4916211;29;20261;-69
2022/03/19 15:47:24;;;;;;;1.77;1.67;;;10.80;99.90;;;;;;4916642;29;20210;-70
2022/03/19 15:49:50;;;;;;;2.20;2.10;;;10.80;99.90;;;;;;4915941;29;20408;-70
2022/03/19 15:52:17;;;;;;;2.58;1.88;;;10.80;99.90;;;;;;4916364;29;20234;-69
2022/03/19 15:54:44;;;;;;;2.20;2.10;;;10.80;99.90;;;;;;4916744;29;20300;-69
2022/03/19 15:57:10;;;;;;;1.83;1.73;;;10.80;99.90;;;;;;4916813;29;20206;-69
2022/03/19 15:59:37;;;;;;;2.08;1.98;;;10.80;99.90;;;;;;4916302;29;20222;-70
2022/03/19 16:02:04;;;;;;;1.42;1.42;;;10.80;99.90;;;;;;4915429;29;20245;-70
2022/03/19 16:04:32;;;;;;;2.35;2.25;;;10.80;99.90;;;;;;4915438;29;20325;-70
2022/03/19 16:06:59;;;;;;;2.28;2.17;;;10.80;99.90;;;;;;4916458;29;20663;-69
2022/03/19 16:09:26;;;;;;;2.10;1.90;;;10.70;99.90;;;;;;4916560;29;20249;-70
2022/03/19 16:11:52;;;;;;;2.75;2.65;;;10.70;99.90;;;;;;4915813;29;20372;-69
2022/03/19 16:14:19;;;;;;;2.50;2.30;;;10.60;99.90;;;;;;4916500;29;20580;-70
2022/03/19 16:16:46;;;;;;;4.45;2.85;;;10.60;99.90;;;;;;4917925;29;20240;-69
2022/03/19 16:19:12;;;;;;;1.77;1.77;;;10.50;99.90;;;;;;4935493;29;20209;-70
2022/03/19 16:21:40;;;;;;;2.90;2.70;;;10.40;99.90;;;;;;4935398;29;20370;-70
2022/03/19 16:24:07;;;;;;;2.45;2.35;;;10.40;99.90;;;;;;4940523;29;20280;-68
2022/03/19 16:26:34;;;;;;;3.78;2.85;;;10.30;99.90;;;;;;4942479;29;20217;-69
2022/03/19 16:29:01;;;;;;;2.88;2.65;;;10.30;99.90;;;;;;4943810;29;20663;-69
2022/03/19 16:31:27;;;;;;;3.20;2.58;;;10.20;99.90;;;;;;4938663;29;20685;-69
2022/03/19 16:33:54;;;;;;;2.58;2.47;;;10.20;99.90;;;;;;4935933;29;20214;-70
2022/03/19 16:36:21;;;;;;;4.43;3.90;;;10.20;99.90;;;;;;4934703;29;20213;-69
2022/03/19 16:38:49;;;;;;;3.70;2.28;;;10.10;99.90;;;;;;4935085;29;20638;-69
2022/03/19 16:41:15;;;;;;;2.90;2.70;;;10.10;99.90;;;;;;4934263;29;20237;-69
2022/03/19 16:43:42;;;;;;;3.20;3.00;;;10.00;99.90;;;;;;4934813;29;20317;-71
2022/03/19 16:46:09;;;;;;;3.33;3.03;;;10.00;99.90;;;;;;4934708;29;20213;-70
2022/03/19 16:48:35;;;;;;;3.22;2.75;;;9.90;99.90;;;;;;4935011;29;20213;-70
2022/03/19 16:51:02;;;;;;;3.58;3.13;;;9.90;99.90;;;;;;4933676;29;20304;-69
2022/03/19 16:53:29;;;;;;;2.67;2.50;;;9.80;99.90;;;;;;4934503;29;20697;-70
2022/03/19 16:55:57;;;;;;;2.42;2.20;;;9.80;99.90;;;;;;4934420;29;20288;-68
2022/03/19 16:58:24;;;;;;;2.95;2.47;;;9.70;99.90;;;;;;4934567;29;20261;-69
2022/03/19 17:00:51;;;;;;;2.75;2.65;;;9.70;99.90;;;;;;4933442;29;20272;-70
2022/03/19 17:03:18;;;;;;;2.45;2.35;;;9.60;99.90;;;;;;4934619;29;20714;-69
2022/03/19 17:05:45;;;;;;;3.03;2.80;;;9.60;99.90;;;;;;4933409;29;20297;-69
2022/03/19 17:08:12;;;;;;;2.92;2.83;;;9.60;99.90;;;;;;4934221;29;20216;-69
2022/03/19 17:10:39;;;;;;;2.90;2.70;;;9.50;99.90;;;;;;4933510;29;20237;-69
2022/03/19 17:13:07;;;;;;;3.05;2.85;;;9.40;99.90;;;;;;4934134;29;20581;-69
2022/03/19 17:15:34;;;;;;;2.72;2.63;;;9.40;99.90;;;;;;4933654;29;20209;-70
2022/03/19 17:18:00;;;;;;;2.75;2.55;;;9.30;99.90;;;;;;4934199;29;20280;-68
2022/03/19 17:20:27;;;;;;;3.00;2.90;;;9.30;99.90;;;;;;4932757;29;20217;-69
2022/03/19 17:22:54;;;;;;;2.65;2.45;;;9.20;99.90;;;;;;4934168;29;20847;-69
2022/03/19 17:25:22;;;;;;;2.45;2.25;;;9.10;99.90;;;;;;4933770;29;20317;-69
2022/03/19 17:27:49;;;;;;;2.75;2.60;;;9.10;99.90;;;;;;4933869;29;20213;-69
2022/03/19 17:30:18;;;;;;;3.70;3.60;;;9.10;99.90;;;;;;4932889;29;20214;-69
2022/03/19 17:32:44;;;;;;;3.53;3.00;;;9.00;99.90;;;;;;4934048;29;20300;-69
2022/03/19 17:35:13;;;;;;;3.72;3.20;;;9.00;99.90;;;;;;4933406;29;20420;-69
2022/03/19 17:37:40;;;;;;;2.67;2.58;;;8.90;99.90;;;;;;4930043;29;20363;-70
2022/03/19 17:40:08;;;;;;;3.13;2.83;;;8.80;99.90;;;;;;4909964;29;20202;-69
2022/03/19 17:42:35;;;;;;;3.40;3.10;;;8.80;99.90;;;;;;4933509;29;20242;-70
2022/03/19 17:45:02;;;;;;;2.88;2.75;;;8.70;99.90;;;;;;4933702;29;20383;-69
2022/03/19 17:47:30;;;;;;;3.15;2.85;;;8.70;99.90;;;;;;4933862;29;20281;-70
2022/03/19 17:49:57;;;;;;;5.18;4.78;;;8.70;99.90;;;;;;4932824;29;20214;-69
2022/03/19 17:52:26;;;;;;;3.00;2.80;;;8.60;99.90;;;;;;4932871;29;20636;-70
2022/03/19 17:54:53;;;;;;;3.42;3.22;;;8.60;99.90;;;;;;4933483;29;20257;-70
2022/03/19 17:57:20;;;;;;;3.05;2.85;;;8.50;99.90;;;;;;4933781;29;20216;-70
2022/03/19 17:59:46;;;;;;;3.65;3.35;;;8.50;99.90;;;;;;4932542;29;20613;-70
2022/03/19 18:02:14;;;;;;;4.55;3.97;;;8.50;99.90;;;;;;4933392;29;20242;-70
2022/03/19 18:04:42;;;;;;;3.88;3.45;;;8.40;99.90;;;;;;4933130;29;20233;-70
2022/03/19 18:07:09;;;;;;;3.25;3.05;;;8.40;99.90;;;;;;4932692;29;20528;-69